createdAt,value
2019-03-28T00:00:40.515Z,8.50
2019-03-28T00:03:09.086Z,8.50
2019-03-28T00:05:37.670Z,8.50
2019-03-28T00:08:06.247Z,8.50
2019-03-28T00:10:35.305Z,8.50
2019-03-28T00:13:03.886Z,8.50
2019-03-28T00:15:33.219Z,8.50
2019-03-28T00:18:02.328Z,8.50
2019-03-28T00:20:31.437Z,8.50
2019-03-28T00:23:04.496Z,8.50
2019-03-28T00:25:33.437Z,8.60
2019-03-28T00:28:02.011Z,8.60
2019-03-28T00:30:30.596Z,8.50
2019-03-28T00:32:59.170Z,8.50
2019-03-28T00:35:28.104Z,8.50
2019-03-28T00:37:56.684Z,8.50
2019-03-28T00:40:25.286Z,8.50
2019-03-28T00:42:53.871Z,8.50
2019-03-28T00:45:22.462Z,8.50
2019-03-28T00:47:51.030Z,8.50
2019-03-28T00:50:19.633Z,8.50
2019-03-28T00:52:48.250Z,8.60
2019-03-28T00:55:16.856Z,8.60
2019-03-28T00:57:45.421Z,8.60
2019-03-28T01:00:14.743Z,8.50
2019-03-28T01:02:43.336Z,8.50
2019-03-28T01:05:12.489Z,8.60
2019-03-28T01:07:41.083Z,8.60
2019-03-28T01:10:10.023Z,8.60
2019-03-28T01:12:38.581Z,8.50
2019-03-28T01:15:07.924Z,8.50
2019-03-28T01:17:36.494Z,8.50
2019-03-28T01:20:08.120Z,8.50
2019-03-28T01:22:36.695Z,8.60
2019-03-28T01:25:05.668Z,8.60
2019-03-28T01:27:34.244Z,8.50
2019-03-28T01:30:02.844Z,8.50
2019-03-28T01:32:31.414Z,8.40
2019-03-28T01:35:00.018Z,8.50
2019-03-28T01:37:29.216Z,8.50
2019-03-28T01:39:58.323Z,8.50
2019-03-28T01:42:26.894Z,8.50
2019-03-28T01:44:55.498Z,8.50
2019-03-28T01:47:24.083Z,8.50
2019-03-28T01:49:52.691Z,8.50
2019-03-28T01:52:21.418Z,8.60
2019-03-28T01:54:50.153Z,8.50
2019-03-28T01:57:19.014Z,8.60
2019-03-28T01:59:47.615Z,8.60
2019-03-28T02:02:16.205Z,8.60
2019-03-28T02:04:44.793Z,8.50
2019-03-28T02:07:13.378Z,8.50
2019-03-28T02:09:42.237Z,8.50
2019-03-28T02:12:10.816Z,8.50
2019-03-28T02:14:39.406Z,8.50
2019-03-28T02:17:07.989Z,8.50
2019-03-28T02:19:36.586Z,8.60
2019-03-28T02:22:05.525Z,8.50
2019-03-28T02:24:34.086Z,8.50
2019-03-28T02:27:02.958Z,8.60
2019-03-28T02:29:31.555Z,8.60
2019-03-28T02:32:00.120Z,8.60
2019-03-28T02:34:28.718Z,8.50
2019-03-28T02:36:57.607Z,8.50
2019-03-28T02:39:26.676Z,8.60
2019-03-28T02:41:55.266Z,8.50
2019-03-28T02:44:23.848Z,8.40
2019-03-28T02:46:52.417Z,8.50
2019-03-28T02:49:20.981Z,8.50
2019-03-28T02:51:49.574Z,8.50
2019-03-28T02:54:18.161Z,8.50
2019-03-28T02:56:47.110Z,8.50
2019-03-28T02:59:15.744Z,8.50
2019-03-28T03:01:44.354Z,8.50
2019-03-28T03:04:12.938Z,8.50
2019-03-28T03:06:41.547Z,8.50
2019-03-28T03:09:10.570Z,8.50
2019-03-28T03:11:42.580Z,8.40
2019-03-28T03:14:10.051Z,8.50
2019-03-28T03:16:38.662Z,8.40
2019-03-28T03:19:07.220Z,8.40
2019-03-28T03:21:36.057Z,8.50
2019-03-28T03:24:05.035Z,8.50
2019-03-28T03:26:33.770Z,8.50
2019-03-28T03:29:02.407Z,8.50
2019-03-28T03:31:31.023Z,8.50
2019-03-28T03:33:59.575Z,8.50
2019-03-28T03:36:28.182Z,8.50
2019-03-28T03:38:56.770Z,8.50
2019-03-28T03:41:25.367Z,8.50
2019-03-28T03:43:53.946Z,8.50
2019-03-28T03:46:22.547Z,8.50
2019-03-28T03:48:51.122Z,8.50
2019-03-28T03:51:19.716Z,8.50
2019-03-28T03:53:48.351Z,8.50
2019-03-28T03:56:17.313Z,8.50
2019-03-28T03:58:45.974Z,8.50
2019-03-28T04:01:14.590Z,8.50
2019-03-28T04:03:43.468Z,8.40
2019-03-28T04:06:12.066Z,8.40
2019-03-28T04:08:40.641Z,8.40
2019-03-28T04:11:09.207Z,8.40
2019-03-28T04:13:38.114Z,8.40
2019-03-28T04:16:07.266Z,8.50
2019-03-28T04:18:35.834Z,8.50
2019-03-28T04:21:04.419Z,8.40
2019-03-28T04:23:33.017Z,8.40
2019-03-28T04:26:01.598Z,8.40
2019-03-28T04:28:32.053Z,8.40
2019-03-28T04:31:00.576Z,8.40
2019-03-28T04:33:29.190Z,8.40
2019-03-28T04:35:57.960Z,8.40
2019-03-28T04:38:26.580Z,8.50
2019-03-28T04:40:55.144Z,8.40
2019-03-28T04:43:23.742Z,8.40
2019-03-28T04:45:52.299Z,8.50
2019-03-28T04:48:21.255Z,8.50
2019-03-28T04:50:49.822Z,8.50
2019-03-28T04:53:18.422Z,8.40
2019-03-28T04:55:47.326Z,8.40
2019-03-28T04:58:16.101Z,8.50
2019-03-28T05:00:44.688Z,8.40
2019-03-28T05:03:13.592Z,8.40
2019-03-28T05:05:42.154Z,8.40
2019-03-28T05:08:10.767Z,8.40
2019-03-28T05:10:39.637Z,8.40
2019-03-28T05:13:08.234Z,8.50
2019-03-28T05:15:36.793Z,8.40
2019-03-28T05:18:06.629Z,8.40
2019-03-28T05:20:35.218Z,8.50
2019-03-28T05:23:03.795Z,8.50
2019-03-28T05:25:32.401Z,8.50
2019-03-28T05:28:00.966Z,8.40
2019-03-28T05:30:29.572Z,8.50
2019-03-28T05:32:58.125Z,8.50
2019-03-28T05:35:26.719Z,8.50
2019-03-28T05:37:55.288Z,8.50
2019-03-28T05:40:23.882Z,8.50
2019-03-28T05:42:52.807Z,8.40
2019-03-28T05:45:21.384Z,8.50
2019-03-28T05:47:49.962Z,8.50
2019-03-28T05:50:18.584Z,8.50
2019-03-28T05:52:47.154Z,8.50
2019-03-28T05:55:15.760Z,8.50
2019-03-28T05:57:44.335Z,8.50
2019-03-28T06:00:13.482Z,8.40
2019-03-28T06:02:42.054Z,8.50
2019-03-28T06:05:10.875Z,8.50
2019-03-28T06:07:39.457Z,8.50
2019-03-28T06:10:08.681Z,8.50
2019-03-28T06:12:37.243Z,8.50
2019-03-28T06:15:07.370Z,8.50
2019-03-28T06:17:36.398Z,8.50
2019-03-28T06:20:07.231Z,8.60
2019-03-28T06:22:35.808Z,8.60
2019-03-28T06:25:05.919Z,8.50
2019-03-28T06:27:34.614Z,8.50
2019-03-28T06:30:03.391Z,8.60
2019-03-28T06:32:42.323Z,8.60
2019-03-28T06:35:02.468Z,8.70
2019-03-28T06:37:31.056Z,8.70
2019-03-28T06:39:59.652Z,8.70
2019-03-28T06:42:28.271Z,8.60
2019-03-28T06:44:56.899Z,8.60
2019-03-28T06:47:25.472Z,8.60
2019-03-28T06:49:54.054Z,8.60
2019-03-28T06:52:22.627Z,8.60
2019-03-28T06:54:51.530Z,8.70
2019-03-28T06:57:20.107Z,8.60
2019-03-28T06:59:48.691Z,8.80
2019-03-28T07:02:17.411Z,8.80
2019-03-28T07:04:46.164Z,8.80
2019-03-28T07:07:14.745Z,8.80
2019-03-28T07:09:44.254Z,8.80
2019-03-28T07:12:13.074Z,8.90
2019-03-28T07:14:41.676Z,8.90
2019-03-28T07:17:10.232Z,8.80
2019-03-28T07:19:38.844Z,8.80
2019-03-28T07:22:07.464Z,8.80
2019-03-28T07:24:36.066Z,8.90
2019-03-28T07:27:04.651Z,8.90
2019-03-28T07:29:33.618Z,9.00
2019-03-28T07:32:02.177Z,8.90
2019-03-28T07:34:30.813Z,8.90
2019-03-28T07:36:59.389Z,8.90
2019-03-28T07:39:27.980Z,8.90
2019-03-28T07:41:56.653Z,8.90
2019-03-28T07:44:25.228Z,9.00
2019-03-28T07:46:53.878Z,8.90
2019-03-28T07:49:22.472Z,9.00
2019-03-28T07:51:51.065Z,9.00
2019-03-28T07:54:19.628Z,9.00
2019-03-28T07:56:48.351Z,9.10
2019-03-28T07:59:17.596Z,9.10
2019-03-28T08:01:46.201Z,9.20
2019-03-28T08:04:14.779Z,9.20
2019-03-28T08:06:49.625Z,9.30
2019-03-28T08:09:13.631Z,9.40
2019-03-28T08:11:42.195Z,9.50
2019-03-28T08:14:10.774Z,9.40
2019-03-28T08:16:39.369Z,9.40
2019-03-28T08:19:08.210Z,9.40
2019-03-28T08:21:36.948Z,9.40
2019-03-28T08:24:05.512Z,9.40
2019-03-28T08:26:34.105Z,9.40
2019-03-28T08:29:02.667Z,9.40
2019-03-28T08:31:31.302Z,9.40
2019-03-28T08:34:01.897Z,9.40
2019-03-28T08:36:30.209Z,9.50
2019-03-28T08:38:59.239Z,9.50
2019-03-28T08:41:27.851Z,9.50
2019-03-28T08:43:56.437Z,9.50
2019-03-28T08:46:25.030Z,9.50
2019-03-28T08:48:53.602Z,9.60
2019-03-28T08:51:22.227Z,9.60
2019-03-28T08:53:50.804Z,9.60
2019-03-28T08:56:19.423Z,9.60
2019-03-28T08:58:51.337Z,9.60
2019-03-28T09:01:20.419Z,9.50
2019-03-28T09:03:49.847Z,9.50
2019-03-28T09:06:18.702Z,9.60
2019-03-28T09:08:47.298Z,9.60
2019-03-28T09:11:15.877Z,9.60
2019-03-28T09:13:44.564Z,9.60
2019-03-28T09:16:13.615Z,9.60
2019-03-28T09:18:42.153Z,9.60
2019-03-28T09:21:10.859Z,9.60
2019-03-28T09:23:39.393Z,9.70
2019-03-28T09:26:08.061Z,9.70
2019-03-28T09:28:36.655Z,9.70
2019-03-28T09:31:18.961Z,9.70
2019-03-28T09:33:35.470Z,9.70
2019-03-28T09:36:04.076Z,9.60
2019-03-28T09:38:32.637Z,9.70
2019-03-28T09:41:01.225Z,9.70
2019-03-28T09:43:29.816Z,9.70
2019-03-28T09:46:00.379Z,9.70
2019-03-28T09:48:28.624Z,9.70
2019-03-28T09:50:57.215Z,9.70
2019-03-28T09:53:25.798Z,9.70
2019-03-28T09:55:54.376Z,9.80
2019-03-28T09:58:22.950Z,9.80
2019-03-28T10:01:02.772Z,9.80
2019-03-28T10:03:23.001Z,9.80
2019-03-28T10:05:51.590Z,9.70
2019-03-28T10:08:20.186Z,9.80
2019-03-28T10:10:48.945Z,9.80
2019-03-28T10:13:18.008Z,9.80
2019-03-28T10:15:46.575Z,9.90
2019-03-28T10:18:15.180Z,9.90
2019-03-28T10:20:43.758Z,10.10
2019-03-28T10:23:12.595Z,10.10
2019-03-28T10:25:41.422Z,10.00
2019-03-28T10:28:10.009Z,10.00
2019-03-28T10:30:41.649Z,10.00
2019-03-28T10:33:10.649Z,10.00
2019-03-28T10:35:39.234Z,10.10
2019-03-28T10:38:07.892Z,10.10
2019-03-28T10:40:36.692Z,10.20
2019-03-28T10:43:05.352Z,10.20
2019-03-28T10:45:34.123Z,10.30
2019-03-28T10:48:02.836Z,10.20
2019-03-28T10:50:40.826Z,10.10
2019-03-28T10:53:01.771Z,10.20
2019-03-28T10:55:30.355Z,10.30
2019-03-28T10:57:58.966Z,10.30
2019-03-28T11:00:27.623Z,10.30
2019-03-28T11:02:56.334Z,10.30
2019-03-28T11:05:24.987Z,10.30
2019-03-28T11:07:53.564Z,10.30
2019-03-28T11:10:22.128Z,10.40
2019-03-28T11:12:50.728Z,10.40
2019-03-28T11:15:19.303Z,10.50
2019-03-28T11:17:47.878Z,10.60
2019-03-28T11:20:16.520Z,10.70
2019-03-28T11:22:45.151Z,10.70
2019-03-28T11:25:13.792Z,10.80
2019-03-28T11:27:42.389Z,10.60
2019-03-28T11:30:11.592Z,10.60
2019-03-28T11:32:40.172Z,10.60
2019-03-28T11:35:08.808Z,10.70
2019-03-28T11:37:37.583Z,10.70
2019-03-28T11:40:09.339Z,10.70
2019-03-28T11:42:38.188Z,10.60
2019-03-28T11:45:09.386Z,10.70
2019-03-28T11:47:38.062Z,10.70
2019-03-28T11:50:11.602Z,10.70
2019-03-28T11:52:42.649Z,10.70
2019-03-28T11:55:10.987Z,10.60
2019-03-28T11:57:39.658Z,10.60
2019-03-28T12:00:12.217Z,10.70
2019-03-28T12:02:40.899Z,10.60
2019-03-28T12:05:10.565Z,10.70
2019-03-28T12:07:39.293Z,10.60
2019-03-28T12:10:09.735Z,10.60
2019-03-28T12:12:38.376Z,10.60
2019-03-28T12:15:08.092Z,10.70
2019-03-28T12:17:36.718Z,10.70
2019-03-28T12:20:08.459Z,10.70
2019-03-28T12:22:37.174Z,10.80
2019-03-28T12:25:07.447Z,11.30
2019-03-28T12:27:37.403Z,10.80
2019-03-28T12:30:08.886Z,10.80
2019-03-28T12:32:37.461Z,10.80
2019-03-28T12:35:07.431Z,10.80
2019-03-28T12:37:36.845Z,10.80
2019-03-28T12:40:08.554Z,10.70
2019-03-28T12:42:37.401Z,10.70
2019-03-28T12:45:11.123Z,10.70
2019-03-28T12:47:42.778Z,10.70
2019-03-28T12:50:12.276Z,10.70
2019-03-28T12:52:40.888Z,10.70
2019-03-28T12:55:11.063Z,10.70
2019-03-28T12:57:41.473Z,10.70
2019-03-28T13:00:12.306Z,10.70
2019-03-28T13:02:41.057Z,10.80
2019-03-28T13:05:10.435Z,10.90
2019-03-28T13:07:39.031Z,10.90
2019-03-28T13:10:10.155Z,10.90
2019-03-28T13:12:38.963Z,11.00
2019-03-28T13:15:08.930Z,11.10
2019-03-28T13:17:37.498Z,11.10
2019-03-28T13:20:09.122Z,11.00
2019-03-28T13:22:37.820Z,11.00
2019-03-28T13:25:07.836Z,11.00
2019-03-28T13:27:37.045Z,10.90
2019-03-28T13:30:11.838Z,10.90
2019-03-28T13:32:42.367Z,10.90
2019-03-28T13:35:11.409Z,10.90
2019-03-28T13:37:40.295Z,11.00
2019-03-28T13:40:09.719Z,10.90
2019-03-28T13:42:39.111Z,10.90
2019-03-28T13:45:10.721Z,10.90
2019-03-28T13:47:39.591Z,11.10
2019-03-28T13:50:14.896Z,11.10
2019-03-28T13:52:43.492Z,11.00
2019-03-28T13:55:12.238Z,11.00
2019-03-28T13:57:43.296Z,11.00
2019-03-28T14:00:12.420Z,11.10
2019-03-28T14:02:54.268Z,11.20
2019-03-28T14:05:12.991Z,11.30
2019-03-28T14:07:41.601Z,11.30
2019-03-28T14:10:10.925Z,11.40
2019-03-28T14:12:40.089Z,11.50
2019-03-28T14:15:08.716Z,11.60
2019-03-28T14:17:37.658Z,11.50
2019-03-28T14:20:07.234Z,11.60
2019-03-28T14:22:36.480Z,11.60
2019-03-28T14:25:07.003Z,11.50
2019-03-28T14:27:35.940Z,11.30
2019-03-28T14:30:09.762Z,11.20
2019-03-28T14:32:52.073Z,11.10
2019-03-28T14:35:08.848Z,11.00
2019-03-28T14:37:40.560Z,10.90
2019-03-28T14:40:09.789Z,10.90
2019-03-28T14:42:38.488Z,11.00
2019-03-28T14:45:08.184Z,10.90
2019-03-28T14:47:36.771Z,10.90
2019-03-28T14:50:07.168Z,10.80
2019-03-28T14:52:35.925Z,10.90
2019-03-28T14:55:05.360Z,10.90
2019-03-28T14:57:34.039Z,10.80
2019-03-28T15:00:04.646Z,10.80
2019-03-28T15:02:33.269Z,10.70
2019-03-28T15:05:02.194Z,10.70
2019-03-28T15:07:30.789Z,10.60
2019-03-28T15:09:59.412Z,10.50
2019-03-28T15:12:27.985Z,10.60
2019-03-28T15:14:56.569Z,10.60
2019-03-28T15:17:25.175Z,10.50
2019-03-28T15:19:53.748Z,10.50
2019-03-28T15:22:22.385Z,10.60
2019-03-28T15:24:51.360Z,10.60
2019-03-28T15:27:19.964Z,10.60
2019-03-28T15:29:48.574Z,10.60
2019-03-28T15:32:17.204Z,10.50
2019-03-28T15:34:45.775Z,10.50
2019-03-28T15:37:14.455Z,10.60
2019-03-28T15:39:43.044Z,10.60
2019-03-28T15:42:11.653Z,10.60
2019-03-28T15:44:40.523Z,10.50
2019-03-28T15:47:09.507Z,10.50
2019-03-28T15:49:38.080Z,10.50
2019-03-28T15:52:06.688Z,10.40
2019-03-28T15:54:35.335Z,10.40
2019-03-28T15:57:04.018Z,10.40
2019-03-28T15:59:32.607Z,10.40
2019-03-28T16:02:01.199Z,10.40
2019-03-28T16:04:29.789Z,10.40
2019-03-28T16:06:58.766Z,10.40
2019-03-28T16:09:27.335Z,10.40
2019-03-28T16:12:02.419Z,10.30
2019-03-28T16:14:26.185Z,10.30
2019-03-28T16:16:55.223Z,10.30
2019-03-28T16:19:25.115Z,10.30
2019-03-28T16:21:53.723Z,10.30
2019-03-28T16:24:22.686Z,10.30
2019-03-28T16:26:51.315Z,10.30
2019-03-28T16:29:19.886Z,10.30
2019-03-28T16:31:48.469Z,10.30
2019-03-28T16:34:17.392Z,10.30
2019-03-28T16:36:46.569Z,10.30
2019-03-28T16:39:15.172Z,10.30
2019-03-28T16:41:43.766Z,10.30
2019-03-28T16:44:12.384Z,10.30
2019-03-28T16:46:41.412Z,10.20
2019-03-28T16:49:10.021Z,10.10
2019-03-28T16:51:38.670Z,10.10
2019-03-28T16:54:07.295Z,10.10
2019-03-28T16:56:35.898Z,10.20
2019-03-28T16:59:04.564Z,10.20
2019-03-28T17:01:33.218Z,10.30
2019-03-28T17:04:01.907Z,10.40
2019-03-28T17:06:30.759Z,10.40
2019-03-28T17:09:00.672Z,10.40
2019-03-28T17:11:29.254Z,10.40
2019-03-28T17:13:57.926Z,10.40
2019-03-28T17:16:26.851Z,10.40
2019-03-28T17:18:55.465Z,10.40
2019-03-28T17:21:24.426Z,10.40
2019-03-28T17:23:53.805Z,10.30
2019-03-28T17:26:22.437Z,10.30
2019-03-28T17:28:51.052Z,10.30
2019-03-28T17:31:19.666Z,10.30
2019-03-28T17:33:48.251Z,10.30
2019-03-28T17:36:16.897Z,10.30
2019-03-28T17:38:45.495Z,10.30
2019-03-28T17:41:14.493Z,10.40
2019-03-28T17:43:43.071Z,10.40
2019-03-28T17:46:12.483Z,10.40
2019-03-28T17:48:41.272Z,10.30
2019-03-28T17:51:10.310Z,10.30
2019-03-28T17:53:39.223Z,10.40
2019-03-28T17:56:07.907Z,10.40
2019-03-28T17:58:36.487Z,10.40
2019-03-28T18:01:05.850Z,10.50
2019-03-28T18:03:34.439Z,10.50
2019-03-28T18:06:03.136Z,10.50
2019-03-28T18:08:31.735Z,10.40
2019-03-28T18:11:00.572Z,10.40
2019-03-28T18:13:29.191Z,10.50
2019-03-28T18:15:58.198Z,10.50
2019-03-28T18:18:26.770Z,10.50
2019-03-28T18:20:55.396Z,10.50
2019-03-28T18:23:24.314Z,10.40
2019-03-28T18:25:52.917Z,10.40
2019-03-28T18:28:21.603Z,10.50
2019-03-28T18:30:50.519Z,10.50
2019-03-28T18:33:19.102Z,10.60
2019-03-28T18:35:48.036Z,10.60
2019-03-28T18:38:16.614Z,10.60
2019-03-28T18:40:45.307Z,10.50
2019-03-28T18:43:13.908Z,10.50
2019-03-28T18:45:42.511Z,10.50
2019-03-28T18:48:11.372Z,10.40
2019-03-28T18:50:41.342Z,10.40
2019-03-28T18:53:10.168Z,10.40
2019-03-28T18:55:38.785Z,10.30
2019-03-28T18:58:07.469Z,10.30
2019-03-28T19:00:36.119Z,10.30
2019-03-28T19:03:04.709Z,10.30
2019-03-28T19:05:33.359Z,10.30
2019-03-28T19:08:02.042Z,10.30
2019-03-28T19:10:30.661Z,10.30
2019-03-28T19:12:59.277Z,10.30
2019-03-28T19:15:27.962Z,10.20
2019-03-28T19:17:56.538Z,10.30
2019-03-28T19:20:25.156Z,10.30
2019-03-28T19:22:53.823Z,10.30
2019-03-28T19:25:22.558Z,10.20
2019-03-28T19:27:51.147Z,10.20
2019-03-28T19:30:31.098Z,10.20
2019-03-28T19:32:59.682Z,10.10
2019-03-28T19:35:33.177Z,10.20
2019-03-28T19:37:58.836Z,10.20
2019-03-28T19:40:27.452Z,10.20
2019-03-28T19:42:56.063Z,10.10
2019-03-28T19:45:35.547Z,10.10
2019-03-28T19:48:03.080Z,10.10
2019-03-28T19:50:31.689Z,10.10
2019-03-28T19:53:00.931Z,10.10
2019-03-28T19:55:29.511Z,10.20
2019-03-28T19:57:58.144Z,10.10
2019-03-28T20:00:26.809Z,10.20
2019-03-28T20:02:55.413Z,10.20
2019-03-28T20:05:23.986Z,10.20
2019-03-28T20:07:52.607Z,10.20
2019-03-28T20:10:21.311Z,10.10
2019-03-28T20:12:49.958Z,10.20
2019-03-28T20:15:18.916Z,10.20
2019-03-28T20:17:48.056Z,10.10
2019-03-28T20:20:17.338Z,10.10
2019-03-28T20:22:45.979Z,10.20
2019-03-28T20:25:14.571Z,10.10
2019-03-28T20:27:43.251Z,10.10
2019-03-28T20:30:12.077Z,10.10
2019-03-28T20:32:40.760Z,10.10
2019-03-28T20:35:10.711Z,10.10
2019-03-28T20:37:39.537Z,10.10
2019-03-28T20:40:09.112Z,10.20
2019-03-28T20:42:37.793Z,10.10
2019-03-28T20:45:08.523Z,10.10
2019-03-28T20:47:37.217Z,10.10
2019-03-28T20:50:07.257Z,10.10
2019-03-28T20:52:35.865Z,10.10
2019-03-28T20:55:06.721Z,10.10
2019-03-28T20:57:36.009Z,10.00
2019-03-28T21:00:08.547Z,9.90
2019-03-28T21:02:36.499Z,9.90
2019-03-28T21:05:06.785Z,9.90
2019-03-28T21:07:35.312Z,9.90
2019-03-28T21:10:05.433Z,9.90
2019-03-28T21:12:34.082Z,9.90
2019-03-28T21:15:02.671Z,9.90
2019-03-28T21:17:32.282Z,9.90
2019-03-28T21:20:01.471Z,9.50
2019-03-28T21:22:30.052Z,9.80
2019-03-28T21:24:58.669Z,9.80
2019-03-28T21:27:27.238Z,9.80
2019-03-28T21:29:55.918Z,9.80
2019-03-28T21:32:24.499Z,9.70
2019-03-28T21:34:56.260Z,9.70
2019-03-28T21:37:23.362Z,9.80
2019-03-28T21:39:51.967Z,9.70
2019-03-28T21:42:20.549Z,9.70
2019-03-28T21:44:49.540Z,9.70
2019-03-28T21:47:18.133Z,9.70
2019-03-28T21:49:47.140Z,9.70
2019-03-28T21:52:15.720Z,9.60
2019-03-28T21:54:44.415Z,9.60
2019-03-28T21:57:14.547Z,9.60
2019-03-28T21:59:43.419Z,9.60
2019-03-28T22:02:12.278Z,9.50
2019-03-28T22:04:40.891Z,9.50
2019-03-28T22:07:09.467Z,9.50
2019-03-28T22:09:39.686Z,9.60
2019-03-28T22:12:08.303Z,9.50
2019-03-28T22:14:36.947Z,9.60
2019-03-28T22:17:05.660Z,9.50
2019-03-28T22:19:34.255Z,9.50
2019-03-28T22:22:02.847Z,9.50
2019-03-28T22:24:31.452Z,9.50
2019-03-28T22:27:00.032Z,9.40
2019-03-28T22:29:28.628Z,9.40
2019-03-28T22:31:57.215Z,9.50
2019-03-28T22:34:25.791Z,9.50
2019-03-28T22:36:57.498Z,9.50
2019-03-28T22:39:24.627Z,9.40
2019-03-28T22:41:53.206Z,9.40
2019-03-28T22:44:21.837Z,9.40
2019-03-28T22:46:50.400Z,9.50
2019-03-28T22:49:18.991Z,9.50
2019-03-28T22:51:47.589Z,9.50
2019-03-28T22:54:16.548Z,9.50
2019-03-28T22:56:45.128Z,9.50
2019-03-28T22:59:13.737Z,9.50
2019-03-28T23:01:42.344Z,9.40
2019-03-28T23:04:10.943Z,9.40
2019-03-28T23:06:39.610Z,9.40
2019-03-28T23:09:08.211Z,9.40
2019-03-28T23:11:36.779Z,9.40
2019-03-28T23:14:05.464Z,9.40
2019-03-28T23:16:34.314Z,9.40
2019-03-28T23:19:02.913Z,9.50
2019-03-28T23:21:31.790Z,9.50
2019-03-28T23:24:00.380Z,9.50
2019-03-28T23:26:29.267Z,9.60
2019-03-28T23:28:58.139Z,9.50
2019-03-28T23:31:27.053Z,9.50
2019-03-28T23:33:56.251Z,9.50
2019-03-28T23:36:25.526Z,9.50
2019-03-28T23:38:54.182Z,9.50
2019-03-28T23:41:22.794Z,9.60
2019-03-28T23:43:51.358Z,9.50
2019-03-28T23:46:19.980Z,9.50
2019-03-28T23:48:48.567Z,9.50
2019-03-28T23:51:17.167Z,9.50
2019-03-28T23:53:45.756Z,9.50
2019-03-28T23:56:14.378Z,9.50
2019-03-28T23:58:43.014Z,9.60
